createdAt,value
2023-04-18T00:01:40.281Z,-24025.09
2023-04-18T00:08:14.387Z,-24024.09
2023-04-18T00:10:44.667Z,-24022.40
2023-04-18T00:13:13.248Z,-24021.00
2023-04-18T00:15:43.946Z,-24019.69
2023-04-18T00:18:17.162Z,-24019.03
2023-04-18T00:20:46.280Z,-24018.44
2023-04-18T00:23:14.889Z,-24017.81
2023-04-18T00:25:43.134Z,-24017.56
2023-04-18T00:28:11.280Z,-24017.22
2023-04-18T00:30:39.575Z,-24016.72
2023-04-18T00:33:07.964Z,-24016.28
2023-04-18T00:35:38.224Z,-24015.66
2023-04-18T00:38:06.394Z,-24014.88
2023-04-18T00:40:35.688Z,-24014.16
2023-04-18T00:43:03.811Z,-24013.47
2023-04-18T00:45:32.235Z,-24012.59
2023-04-18T00:48:00.794Z,-24011.47
2023-04-18T00:50:29.079Z,-24010.47
2023-04-18T00:52:57.398Z,-24009.66
2023-04-18T00:55:25.646Z,-24009.19
2023-04-18T00:57:53.787Z,-24008.38
2023-04-18T01:00:22.003Z,-24007.34
2023-04-18T01:02:53.367Z,-24006.34
2023-04-18T01:05:22.755Z,-24005.50
2023-04-18T01:07:52.213Z,-24004.04
2023-04-18T01:10:20.544Z,-24003.10
2023-04-18T01:12:51.074Z,-24001.82
2023-04-18T01:15:19.329Z,-24001.10
2023-04-18T01:17:48.071Z,-24000.82
2023-04-18T01:20:16.981Z,-24000.10
2023-04-18T01:22:45.223Z,-23999.59
2023-04-18T01:25:13.799Z,-23999.06
2023-04-18T01:27:42.173Z,-23998.00
2023-04-18T01:30:10.942Z,-23997.19
2023-04-18T01:32:39.681Z,-23996.41
2023-04-18T01:35:08.502Z,-23995.81
2023-04-18T01:37:36.786Z,-23995.41
2023-04-18T01:40:05.413Z,-23994.77
2023-04-18T01:42:33.956Z,-23994.46
2023-04-18T01:45:02.301Z,-23994.06
2023-04-18T01:47:30.728Z,-23993.90
2023-04-18T01:49:58.869Z,-23993.27
2023-04-18T01:52:30.091Z,-23992.90
2023-04-18T01:54:58.216Z,-23992.40
2023-04-18T01:57:26.519Z,-23991.90
2023-04-18T01:59:54.971Z,-23991.27
2023-04-18T02:02:23.371Z,-23990.93
2023-04-18T02:04:53.108Z,-23990.65
2023-04-18T02:07:21.242Z,-23990.24
2023-04-18T02:09:49.399Z,-23989.74
2023-04-18T02:12:17.569Z,-23989.05
2023-04-18T02:14:45.693Z,-23988.14
2023-04-18T02:17:13.804Z,-23987.08
2023-04-18T02:19:42.950Z,-23986.36
2023-04-18T02:22:11.124Z,-23985.77
2023-04-18T02:24:39.304Z,-23985.14
2023-04-18T02:27:07.471Z,-23984.71
2023-04-18T02:29:35.900Z,-23984.49
2023-04-18T02:32:05.790Z,-23984.02
2023-04-18T02:34:34.065Z,-23983.45
2023-04-18T02:37:02.225Z,-23982.98
2023-04-18T02:39:31.404Z,-23982.33
2023-04-18T02:41:59.574Z,-23981.83
2023-04-18T02:44:27.822Z,-23981.17
2023-04-18T02:46:56.113Z,-23980.45
2023-04-18T02:49:24.255Z,-23979.86
2023-04-18T02:51:55.966Z,-23979.39
2023-04-18T02:54:24.963Z,-23978.83
2023-04-18T02:57:01.394Z,-23977.73
2023-04-18T02:59:45.790Z,-23976.73
2023-04-18T03:02:34.496Z,-23975.98
2023-04-18T03:05:10.569Z,-23975.60
2023-04-18T03:07:39.796Z,-23975.16
2023-04-18T03:10:08.189Z,-23974.60
2023-04-18T03:12:37.101Z,-23974.13
2023-04-18T03:15:06.314Z,-23973.47
2023-04-18T03:17:36.272Z,-23973.10
2023-04-18T03:20:06.739Z,-23973.04
2023-04-18T03:22:35.205Z,-23973.13
2023-04-18T03:25:03.976Z,-23972.91
2023-04-18T03:27:55.109Z,-23972.54
2023-04-18T03:30:23.853Z,-23972.19
2023-04-18T03:32:56.592Z,-23971.88
2023-04-18T03:35:25.213Z,-23971.66
2023-04-18T03:37:53.358Z,-23971.54
2023-04-18T03:40:33.023Z,-23971.88
2023-04-18T03:43:06.341Z,-23972.00
2023-04-18T03:45:34.714Z,-23971.66
2023-04-18T03:48:02.995Z,-23971.97
2023-04-18T03:50:33.217Z,-23972.63
2023-04-18T03:53:01.814Z,-23973.23
2023-04-18T03:55:31.998Z,-23973.60
2023-04-18T03:58:00.401Z,-23973.82
2023-04-18T04:00:30.034Z,-23974.04
2023-04-18T04:03:05.591Z,-23974.23
2023-04-18T04:05:34.320Z,-23974.48
2023-04-18T04:08:02.476Z,-23974.88
2023-04-18T04:10:31.459Z,-23974.85
2023-04-18T04:12:59.650Z,-23975.01
2023-04-18T04:15:28.243Z,-23975.60
2023-04-18T04:18:01.645Z,-23976.36
2023-04-18T04:20:30.199Z,-23977.14
2023-04-18T04:23:03.603Z,-23978.57
2023-04-18T04:25:33.443Z,-23979.95
2023-04-18T04:28:03.693Z,-23981.73
2023-04-18T04:30:34.190Z,-23983.27
2023-04-18T04:33:03.575Z,-23985.02
2023-04-18T04:35:34.895Z,-23986.27
2023-04-18T04:38:03.179Z,-23987.49
2023-04-18T04:40:36.894Z,-23988.68
2023-04-18T04:43:15.698Z,-23990.21
2023-04-18T04:45:45.352Z,-23992.87
2023-04-18T04:48:13.664Z,-23995.69
2023-04-18T04:50:42.912Z,-23998.03
2023-04-18T04:53:12.933Z,-24000.16
2023-04-18T04:55:41.517Z,-24002.35
2023-04-18T04:58:09.846Z,-24004.63
2023-04-18T05:00:55.035Z,-24007.47
2023-04-18T05:03:23.625Z,-24009.50
2023-04-18T05:05:52.122Z,-24009.94
2023-04-18T05:08:20.659Z,-24011.75
2023-04-18T05:10:50.172Z,-24013.00
2023-04-18T05:13:18.378Z,-24013.03
2023-04-18T05:15:46.524Z,-24013.22
2023-04-18T05:18:14.822Z,-24013.54
2023-04-18T05:20:42.997Z,-24013.66
2023-04-18T05:23:11.357Z,-24014.81
2023-04-18T05:25:39.540Z,-24016.63
2023-04-18T05:28:08.618Z,-24018.66
2023-04-18T05:30:36.863Z,-24020.47
2023-04-18T05:33:05.117Z,-24021.81
2023-04-18T05:35:33.358Z,-24022.40
2023-04-18T05:38:01.580Z,-24022.09
2023-04-18T05:40:30.347Z,-24022.41
2023-04-18T05:42:58.582Z,-24024.13
2023-04-18T05:45:26.809Z,-24025.50
2023-04-18T05:47:55.121Z,-24027.87
2023-04-18T05:50:23.360Z,-24030.40
2023-04-18T05:52:51.566Z,-24032.80
2023-04-18T05:55:19.980Z,-24036.11
2023-04-18T05:57:48.088Z,-24038.55
2023-04-18T06:00:17.367Z,-24040.30
2023-04-18T06:02:45.764Z,-24042.73
2023-04-18T06:05:14.155Z,-24043.95
2023-04-18T06:07:42.731Z,-24044.42
2023-04-18T06:10:13.586Z,-24044.85
2023-04-18T06:12:42.318Z,-24045.16
2023-04-18T06:15:11.160Z,-24045.91
2023-04-18T06:17:39.695Z,-24047.22
2023-04-18T06:20:08.182Z,-24047.91
2023-04-18T06:22:36.888Z,-24048.63
2023-04-18T06:25:05.777Z,-24049.03
2023-04-18T06:27:34.037Z,-24049.13
2023-04-18T06:30:02.463Z,-24049.69
2023-04-18T06:32:31.193Z,-24051.43
2023-04-18T06:34:59.420Z,-24053.09
2023-04-18T06:37:27.597Z,-24054.72
2023-04-18T06:39:55.836Z,-24056.24
2023-04-18T06:42:24.098Z,-24057.37
2023-04-18T06:44:52.396Z,-24058.43
2023-04-18T06:47:20.718Z,-24059.61
2023-04-18T06:49:48.931Z,-24059.80
2023-04-18T06:52:17.219Z,-24059.71
2023-04-18T06:54:45.313Z,-24060.64
2023-04-18T06:57:13.376Z,-24061.83
2023-04-18T06:59:41.751Z,-24062.52
2023-04-18T07:02:09.837Z,-24062.83
2023-04-18T07:04:38.189Z,-24062.77
2023-04-18T07:07:06.539Z,-24063.42
2023-04-18T07:09:34.648Z,-24064.17
2023-04-18T07:12:03.226Z,-24065.94
2023-04-18T07:14:33.537Z,-24067.63
2023-04-18T07:17:02.408Z,-24068.13
2023-04-18T07:19:30.650Z,-24067.38
2023-04-18T07:21:58.938Z,-24066.29
2023-04-18T07:24:27.172Z,-24065.10
2023-04-18T07:26:55.402Z,-24065.10
2023-04-18T07:29:23.539Z,-24065.92
2023-04-18T07:31:52.126Z,-24067.38
2023-04-18T07:34:22.204Z,-24068.09
2023-04-18T07:36:50.453Z,-24068.09
2023-04-18T07:39:18.671Z,-24068.38
2023-04-18T07:41:46.824Z,-24070.12
2023-04-18T07:44:15.289Z,-24071.96
2023-04-18T07:46:43.617Z,-24073.49
2023-04-18T07:49:12.111Z,-24073.58
2023-04-18T07:51:40.459Z,-24073.71
2023-04-18T07:54:08.732Z,-24073.58
2023-04-18T07:56:37.374Z,-24075.42
2023-04-18T07:59:05.718Z,-24077.08
2023-04-18T08:01:34.177Z,-24078.51
2023-04-18T08:04:02.507Z,-24076.64
2023-04-18T08:06:31.283Z,-24075.52
2023-04-18T08:09:01.295Z,-24076.45
2023-04-18T08:11:29.567Z,-24078.20
2023-04-18T08:13:57.798Z,-24078.16
2023-04-18T08:16:26.067Z,-24077.14
2023-04-18T08:18:54.214Z,-24077.26
2023-04-18T08:21:22.535Z,-24077.26
2023-04-18T08:23:50.762Z,-24077.36
2023-04-18T08:26:19.822Z,-24078.32
2023-04-18T08:28:48.035Z,-24077.67
2023-04-18T08:31:17.262Z,-24076.57
2023-04-18T08:33:45.664Z,-24077.48
2023-04-18T08:36:13.782Z,-24078.01
2023-04-18T08:38:42.002Z,-24080.56
2023-04-18T08:41:10.171Z,-24084.21
2023-04-18T08:43:38.315Z,-24087.42
2023-04-18T08:46:06.776Z,-24090.69
2023-04-18T08:48:35.120Z,-24093.74
2023-04-18T08:51:05.116Z,-24096.64
2023-04-18T08:53:34.125Z,-24099.69
2023-04-18T08:56:02.939Z,-24102.44
2023-04-18T08:58:34.026Z,-24102.59
2023-04-18T09:01:02.479Z,-24103.22
2023-04-18T09:03:44.338Z,-24104.12
2023-04-18T09:06:14.124Z,-24107.05
2023-04-18T09:08:43.966Z,-24110.56
2023-04-18T09:11:26.173Z,-24113.52
2023-04-18T09:13:56.480Z,-24115.17
2023-04-18T09:16:25.006Z,-24116.29
2023-04-18T09:19:13.312Z,-24117.53
2023-04-18T09:21:42.945Z,-24118.68
2023-04-18T09:24:29.505Z,-24119.09
2023-04-18T09:26:58.754Z,-24121.02
2023-04-18T09:29:47.261Z,-24122.54
2023-04-18T09:32:29.663Z,-24124.54
2023-04-18T09:35:00.596Z,-24125.62
2023-04-18T09:37:30.453Z,-24126.81
2023-04-18T09:39:58.508Z,-24128.30
2023-04-18T09:42:28.758Z,-24130.04
2023-04-18T09:45:07.853Z,-24132.34
2023-04-18T09:47:37.502Z,-24135.32
2023-04-18T09:50:07.703Z,-24137.38
2023-04-18T09:52:40.706Z,-24138.47
2023-04-18T09:55:10.329Z,-24140.61
2023-04-18T09:57:40.874Z,-24141.76
2023-04-18T10:00:25.430Z,-24142.63
2023-04-18T10:03:00.959Z,-24145.04
2023-04-18T10:05:34.461Z,-24147.68
2023-04-18T10:08:03.231Z,-24147.33
2023-04-18T10:10:32.094Z,-24146.31
2023-04-18T10:13:01.348Z,-24147.80
2023-04-18T10:15:29.977Z,-24149.29
2023-04-18T10:18:05.286Z,-24148.86
2023-04-18T10:20:35.509Z,-24148.98
2023-04-18T10:23:35.083Z,-24148.30
2023-04-18T10:26:04.589Z,-24147.24
2023-04-18T10:29:04.993Z,-24148.11
2023-04-18T10:31:33.429Z,-24150.07
2023-04-18T10:34:17.942Z,-24149.57
2023-04-18T10:37:05.235Z,-24148.73
2023-04-18T10:40:08.074Z,-24148.08
2023-04-18T10:42:45.711Z,-24147.80
2023-04-18T10:45:18.054Z,-24145.87
2023-04-18T10:47:46.315Z,-24142.45
2023-04-18T10:50:14.661Z,-24140.30
2023-04-18T10:52:43.582Z,-24139.06
2023-04-18T10:55:11.917Z,-24137.22
2023-04-18T10:57:41.333Z,-24134.43
2023-04-18T11:00:11.927Z,-24131.96
2023-04-18T11:02:40.831Z,-24129.79
2023-04-18T11:05:09.964Z,-24127.58
2023-04-18T11:07:45.209Z,-24126.68
2023-04-18T11:10:13.637Z,-24126.62
2023-04-18T11:12:42.060Z,-24126.09
2023-04-18T11:15:11.402Z,-24124.78
2023-04-18T11:17:40.384Z,-24123.04
2023-04-18T11:20:11.149Z,-24121.48
2023-04-18T11:22:49.271Z,-24120.77
2023-04-18T11:25:18.671Z,-24120.12
2023-04-18T11:27:48.742Z,-24119.16
2023-04-18T11:30:17.067Z,-24117.75
2023-04-18T11:32:45.550Z,-24116.22
2023-04-18T11:35:14.756Z,-24115.42
2023-04-18T11:37:45.551Z,-24114.61
2023-04-18T11:40:13.896Z,-24114.23
2023-04-18T11:42:42.469Z,-24113.95
2023-04-18T11:45:14.131Z,-24113.86
2023-04-18T11:47:43.225Z,-24113.27
2023-04-18T11:50:12.399Z,-24112.21
2023-04-18T11:52:41.651Z,-24110.06
2023-04-18T11:55:24.709Z,-24107.51
2023-04-18T11:58:00.418Z,-24103.59
2023-04-18T12:00:44.235Z,-24096.73
2023-04-18T12:03:16.400Z,-24089.79
2023-04-18T12:05:45.250Z,-24085.05
2023-04-18T12:08:20.174Z,-24081.31
2023-04-18T12:10:52.510Z,-24078.07
2023-04-18T12:13:26.333Z,-24075.67
2023-04-18T12:15:54.746Z,-24071.74
2023-04-18T12:18:23.578Z,-24066.72
2023-04-18T12:20:54.425Z,-24062.45
2023-04-18T12:23:36.005Z,-24059.37
2023-04-18T12:26:08.731Z,-24057.34
2023-04-18T12:28:37.142Z,-24056.09
2023-04-18T12:31:08.552Z,-24053.44
2023-04-18T12:33:36.902Z,-24049.41
2023-04-18T12:36:11.561Z,-24046.63
2023-04-18T12:38:39.767Z,-24045.35
2023-04-18T12:41:07.958Z,-24044.91
2023-04-18T12:43:36.630Z,-24044.13
2023-04-18T12:46:04.858Z,-24042.73
2023-04-18T12:48:33.100Z,-24040.86
2023-04-18T12:51:01.344Z,-24038.98
2023-04-18T12:53:29.721Z,-24037.74
2023-04-18T12:55:57.843Z,-24037.45
2023-04-18T12:58:26.237Z,-24037.36
2023-04-18T13:00:54.646Z,-24036.95
2023-04-18T13:03:22.908Z,-24036.89
2023-04-18T13:05:53.295Z,-24036.61
2023-04-18T13:08:23.012Z,-24035.24
2023-04-18T13:10:51.135Z,-24033.96
2023-04-18T13:13:19.465Z,-24033.43
2023-04-18T13:15:47.682Z,-24032.77
2023-04-18T13:18:15.900Z,-24031.77
2023-04-18T13:20:44.777Z,-24030.59
2023-04-18T13:23:12.864Z,-24029.56
2023-04-18T13:25:41.131Z,-24028.46
2023-04-18T13:28:09.407Z,-24027.55
2023-04-18T13:30:37.567Z,-24027.09
2023-04-18T13:33:06.008Z,-24026.68
2023-04-18T13:35:34.299Z,-24026.50
2023-04-18T13:38:02.401Z,-24026.53
2023-04-18T13:40:30.586Z,-24026.75
2023-04-18T13:42:58.900Z,-24026.59
2023-04-18T13:45:27.551Z,-24026.40
2023-04-18T13:47:56.186Z,-24026.15
2023-04-18T13:50:24.706Z,-24026.06
2023-04-18T13:52:54.816Z,-24026.06
2023-04-18T13:55:24.334Z,-24025.68
2023-04-18T13:57:52.542Z,-24025.09
2023-04-18T14:00:20.988Z,-24024.50
2023-04-18T14:02:49.441Z,-24023.50
2023-04-18T14:05:17.974Z,-24022.00
2023-04-18T14:07:46.355Z,-24020.65
2023-04-18T14:10:14.484Z,-24019.41
2023-04-18T14:12:43.088Z,-24018.69
2023-04-18T14:15:11.541Z,-24017.75
2023-04-18T14:17:39.870Z,-24017.09
2023-04-18T14:20:08.945Z,-24017.13
2023-04-18T14:22:37.144Z,-24017.34
2023-04-18T14:25:05.934Z,-24017.09
2023-04-18T14:27:34.256Z,-24016.35
2023-04-18T14:30:02.380Z,-24015.84
2023-04-18T14:32:31.127Z,-24015.59
2023-04-18T14:34:59.420Z,-24015.88
2023-04-18T14:37:31.015Z,-24016.69
2023-04-18T14:39:59.211Z,-24018.16
2023-04-18T14:42:27.315Z,-24019.50
2023-04-18T14:44:55.630Z,-24020.97
2023-04-18T14:47:24.488Z,-24022.87
2023-04-18T14:49:52.743Z,-24025.40
2023-04-18T14:52:20.932Z,-24027.09
2023-04-18T14:54:49.190Z,-24028.68
2023-04-18T14:57:17.267Z,-24029.78
2023-04-18T14:59:45.406Z,-24030.87
2023-04-18T15:02:13.604Z,-24032.27
2023-04-18T15:04:41.895Z,-24033.74
2023-04-18T15:07:10.168Z,-24035.08
2023-04-18T15:09:39.142Z,-24036.36
2023-04-18T15:12:09.157Z,-24037.77
2023-04-18T15:14:37.640Z,-24038.98
2023-04-18T15:17:05.892Z,-24040.14
2023-04-18T15:19:34.601Z,-24041.54
2023-04-18T15:22:03.128Z,-24042.64
2023-04-18T15:24:31.459Z,-24043.92
2023-04-18T15:27:00.231Z,-24044.79
2023-04-18T15:29:28.721Z,-24045.54
2023-04-18T15:31:56.968Z,-24046.32
2023-04-18T15:34:25.160Z,-24046.75
2023-04-18T15:36:53.272Z,-24047.00
2023-04-18T15:39:23.641Z,-24047.38
2023-04-18T15:41:53.982Z,-24047.38
2023-04-18T15:44:22.295Z,-24047.51
2023-04-18T15:46:50.983Z,-24047.57
2023-04-18T15:49:20.503Z,-24047.54
2023-04-18T15:51:48.977Z,-24047.60
2023-04-18T15:54:17.225Z,-24047.45
2023-04-18T15:56:45.657Z,-24047.41
2023-04-18T15:59:13.889Z,-24047.29
2023-04-18T16:01:45.201Z,-24047.32
2023-04-18T16:04:14.596Z,-24047.41
2023-04-18T16:06:43.376Z,-24047.48
2023-04-18T16:09:11.513Z,-24047.44
2023-04-18T16:11:39.742Z,-24047.47
2023-04-18T16:14:07.952Z,-24047.63
2023-04-18T16:16:36.376Z,-24047.38
2023-04-18T16:19:05.545Z,-24047.41
2023-04-18T16:21:33.956Z,-24047.51
2023-04-18T16:24:02.324Z,-24047.41
2023-04-18T16:26:30.883Z,-24047.16
2023-04-18T16:28:59.096Z,-24047.10
2023-04-18T16:31:27.381Z,-24047.22
2023-04-18T16:33:56.221Z,-24047.22
2023-04-18T16:36:24.492Z,-24047.41
2023-04-18T16:38:52.631Z,-24047.38
2023-04-18T16:41:21.095Z,-24047.10
2023-04-18T16:43:49.319Z,-24047.10
2023-04-18T16:46:19.120Z,-24047.29
2023-04-18T16:48:47.408Z,-24047.26
2023-04-18T16:51:15.783Z,-24047.07
2023-04-18T16:53:45.782Z,-24046.85
2023-04-18T16:56:13.929Z,-24046.88
2023-04-18T16:58:42.027Z,-24047.13
2023-04-18T17:01:10.156Z,-24047.13
2023-04-18T17:03:38.364Z,-24047.16
2023-04-18T17:06:07.057Z,-24047.16
2023-04-18T17:08:36.108Z,-24046.97
2023-04-18T17:11:04.417Z,-24047.25
2023-04-18T17:13:32.878Z,-24047.38
2023-04-18T17:16:01.322Z,-24047.69
2023-04-18T17:18:30.188Z,-24048.07
2023-04-18T17:20:58.422Z,-24048.31
2023-04-18T17:23:26.596Z,-24048.38
2023-04-18T17:25:54.669Z,-24048.69
2023-04-18T17:28:23.811Z,-24048.94
2023-04-18T17:30:52.235Z,-24049.06
2023-04-18T17:33:21.177Z,-24049.22
2023-04-18T17:35:50.523Z,-24048.75
2023-04-18T17:38:18.622Z,-24048.56
2023-04-18T17:40:46.767Z,-24048.47
2023-04-18T17:43:14.928Z,-24048.59
2023-04-18T17:45:44.219Z,-24048.63
2023-04-18T17:48:12.416Z,-24048.53
2023-04-18T17:50:41.416Z,-24048.50
2023-04-18T17:53:09.539Z,-24048.44
2023-04-18T17:55:37.655Z,-24048.34
2023-04-18T17:58:06.088Z,-24048.00
2023-04-18T18:00:35.500Z,-24048.00
2023-04-18T18:03:04.065Z,-24047.69
2023-04-18T18:05:32.522Z,-24047.75
2023-04-18T18:08:01.188Z,-24047.79
2023-04-18T18:10:29.981Z,-24047.82
2023-04-18T18:12:58.452Z,-24047.97
2023-04-18T18:15:26.675Z,-24048.04
2023-04-18T18:17:55.530Z,-24047.94
2023-04-18T18:20:23.974Z,-24047.69
2023-04-18T18:22:52.912Z,-24047.54
2023-04-18T18:25:21.229Z,-24047.41
2023-04-18T18:27:51.404Z,-24047.69
2023-04-18T18:30:19.581Z,-24047.57
2023-04-18T18:32:48.186Z,-24047.60
2023-04-18T18:35:16.332Z,-24047.85
2023-04-18T18:37:44.658Z,-24048.13
2023-04-18T18:40:13.026Z,-24048.38
2023-04-18T18:42:42.722Z,-24048.50
2023-04-18T18:45:10.990Z,-24048.59
2023-04-18T18:47:40.234Z,-24048.38
2023-04-18T18:50:09.213Z,-24047.94
2023-04-18T18:52:37.681Z,-24047.41
2023-04-18T18:55:06.718Z,-24047.19
2023-04-18T18:57:35.357Z,-24047.16
2023-04-18T19:00:11.355Z,-24047.54
2023-04-18T19:02:39.911Z,-24048.81
2023-04-18T19:05:08.852Z,-24050.25
2023-04-18T19:07:39.165Z,-24051.87
2023-04-18T19:10:09.113Z,-24053.44
2023-04-18T19:12:38.134Z,-24054.81
2023-04-18T19:15:06.924Z,-24056.28
2023-04-18T19:17:35.903Z,-24057.18
2023-04-18T19:20:04.333Z,-24058.33
2023-04-18T19:22:32.859Z,-24059.43
2023-04-18T19:25:01.050Z,-24059.89
2023-04-18T19:27:29.736Z,-24060.52
2023-04-18T19:29:57.969Z,-24061.36
2023-04-18T19:32:26.914Z,-24061.92
2023-04-18T19:34:55.184Z,-24062.30
2023-04-18T19:37:23.346Z,-24062.98
2023-04-18T19:39:51.576Z,-24063.51
2023-04-18T19:42:20.633Z,-24063.95
2023-04-18T19:44:49.130Z,-24063.86
2023-04-18T19:47:17.266Z,-24063.70
2023-04-18T19:49:45.371Z,-24063.73
2023-04-18T19:52:13.589Z,-24064.17
2023-04-18T19:54:41.831Z,-24064.48
2023-04-18T19:57:10.653Z,-24064.91
2023-04-18T19:59:38.936Z,-24064.88
2023-04-18T20:02:07.305Z,-24064.98
2023-04-18T20:04:36.945Z,-24065.04
2023-04-18T20:07:05.858Z,-24065.19
2023-04-18T20:09:34.173Z,-24065.39
2023-04-18T20:12:02.836Z,-24065.79
2023-04-18T20:14:32.136Z,-24066.04
2023-04-18T20:17:00.523Z,-24066.29
2023-04-18T20:19:29.891Z,-24066.26
2023-04-18T20:21:58.294Z,-24066.35
2023-04-18T20:24:28.361Z,-24066.69
2023-04-18T20:27:00.888Z,-24067.25
2023-04-18T20:29:29.245Z,-24067.72
2023-04-18T20:31:57.517Z,-24068.25
2023-04-18T20:34:25.748Z,-24068.63
2023-04-18T20:36:54.468Z,-24068.69
2023-04-18T20:39:23.223Z,-24068.63
2023-04-18T20:41:51.688Z,-24068.60
2023-04-18T20:44:21.777Z,-24068.47
2023-04-18T20:46:52.116Z,-24068.25
2023-04-18T20:49:20.584Z,-24068.38
2023-04-18T20:51:48.662Z,-24068.31
2023-04-18T20:54:17.255Z,-24068.53
2023-04-18T20:56:45.985Z,-24068.44
2023-04-18T20:59:14.144Z,-24068.47
2023-04-18T21:01:42.884Z,-24068.28
2023-04-18T21:04:11.584Z,-24068.00
2023-04-18T21:06:40.149Z,-24067.54
2023-04-18T21:09:08.862Z,-24066.97
2023-04-18T21:11:36.991Z,-24066.60
2023-04-18T21:14:06.854Z,-24065.67
2023-04-18T21:16:36.794Z,-24064.82
2023-04-18T21:19:06.382Z,-24063.86
2023-04-18T21:21:34.927Z,-24062.76
2023-04-18T21:24:03.303Z,-24061.86
2023-04-18T21:26:31.575Z,-24060.71
2023-04-18T21:29:04.803Z,-24059.49
2023-04-18T21:31:34.157Z,-24058.33
2023-04-18T21:34:04.314Z,-24056.71
2023-04-18T21:36:33.386Z,-24055.40
2023-04-18T21:39:01.601Z,-24054.09
2023-04-18T21:41:30.160Z,-24052.81
2023-04-18T21:43:58.426Z,-24051.75
2023-04-18T21:46:26.725Z,-24050.47
2023-04-18T21:48:54.958Z,-24049.50
2023-04-18T21:51:23.246Z,-24048.56
2023-04-18T21:53:52.251Z,-24047.41
2023-04-18T21:56:20.633Z,-24046.32
2023-04-18T21:58:49.349Z,-24044.91
2023-04-18T22:01:17.503Z,-24043.64
2023-04-18T22:03:46.462Z,-24042.57
2023-04-18T22:06:14.831Z,-24041.86
2023-04-18T22:08:43.775Z,-24040.36
2023-04-18T22:11:13.701Z,-24038.36
2023-04-18T22:13:46.026Z,-24036.89
2023-04-18T22:16:14.230Z,-24035.27
2023-04-18T22:18:42.340Z,-24033.86
2023-04-18T22:21:10.526Z,-24033.05
2023-04-18T22:23:38.619Z,-24031.65
2023-04-18T22:26:06.786Z,-24029.68
2023-04-18T22:28:35.144Z,-24028.28
2023-04-18T22:31:03.378Z,-24028.31
2023-04-18T22:33:31.807Z,-24028.65
2023-04-18T22:36:01.157Z,-24028.84
2023-04-18T22:38:30.058Z,-24029.03
2023-04-18T22:40:59.535Z,-24028.75
2023-04-18T22:43:28.452Z,-24028.43
2023-04-18T22:45:56.779Z,-24027.78
2023-04-18T22:48:25.153Z,-24027.62
2023-04-18T22:50:53.617Z,-24028.12
2023-04-18T22:53:21.727Z,-24028.59
2023-04-18T22:55:49.932Z,-24028.68
2023-04-18T22:58:18.122Z,-24028.40
2023-04-18T23:00:46.239Z,-24028.46
2023-04-18T23:03:14.726Z,-24028.65
2023-04-18T23:05:43.008Z,-24028.90
2023-04-18T23:08:12.065Z,-24028.96
2023-04-18T23:10:40.803Z,-24028.78
2023-04-18T23:13:09.135Z,-24028.68
2023-04-18T23:15:37.222Z,-24028.81
2023-04-18T23:18:05.562Z,-24028.74
2023-04-18T23:20:34.386Z,-24028.96
2023-04-18T23:23:02.954Z,-24028.93
2023-04-18T23:25:34.018Z,-24028.59
2023-04-18T23:28:02.264Z,-24028.18
2023-04-18T23:30:31.304Z,-24027.78
2023-04-18T23:33:00.187Z,-24026.93
2023-04-18T23:35:28.330Z,-24026.21
2023-04-18T23:37:57.316Z,-24025.96
2023-04-18T23:40:25.530Z,-24026.15
2023-04-18T23:42:53.728Z,-24025.90
2023-04-18T23:45:24.526Z,-24025.50
2023-04-18T23:47:52.884Z,-24024.97
2023-04-18T23:50:21.085Z,-24024.46
2023-04-18T23:52:49.321Z,-24024.09
2023-04-18T23:55:17.535Z,-24023.00
2023-04-18T23:57:45.766Z,-24021.81
